aviador You're here:

KTCL Decoded Metar

TUSCALOOSA in AL, USA
Report Time2017-07-21 03:53:00
UTC Time2017-07-21 04:39:47
Flight Rules vfr VFR
WindCalm
Visibility9999 m
Phenomena:N/A
Clouds:N/A
Expected CloudBase > 800 ft AGL from Temp-Dew spread
CeilingNone
Temp28°C (ISA +13)
Dew Point26°C (89% RH)
Heat Index33.6°C
QNH1017 hPa
Density Alt1,998 ft
Elevation161 ft
Report Wrong Elevation
Raw Report
METAR KTCL 210353Z AUTO 00000KT 10SM CLR 28/26 A3004 RMK AO2 SLP168
T02780256=

Extra information for KTCL:More info

Metar Taf Metar & Taf Last 4 Metars F.Rules Stats Wind Profile Meteogram Temp Stats Airport Information Weather charts Add Link Nearby VenuesMetar ALERT Operation Metar Decoded Social comments

AIRNAV info for KTCL